Time;durP1;ratioP1;P1;durP2;ratioP2;P2;SDS_P1;SDS_P2;PMS_P1;PMS_P2;Temp;Humidity;BMP_temperature;BMP_pressure;BME280_temperature;BME280_humidity;BME280_pressure;Samples;Min_cycle;Max_cycle;Signal;HPM_P1;HPM_P2
2022/09/09 00:00:16;;;;;;;14.93;13.73;;;15.80;99.90;;;;;;4957928;28;20470;-78
2022/09/09 00:02:54;;;;;;;15.90;14.53;;;15.80;99.90;;;;;;4956667;29;20466;-79
2022/09/09 00:05:32;;;;;;;17.60;15.87;;;15.80;99.90;;;;;;4956541;28;20984;-78
2022/09/09 00:08:03;;;;;;;17.40;15.97;;;15.70;99.90;;;;;;4957374;28;20441;-78
2022/09/09 00:10:36;;;;;;;18.47;16.77;;;15.70;99.90;;;;;;4956606;28;20466;-78
2022/09/09 00:13:17;;;;;;;18.27;16.67;;;15.70;99.90;;;;;;4956229;29;20518;-78
2022/09/09 00:15:56;;;;;;;19.23;17.70;;;15.70;99.90;;;;;;4958337;28;20522;-79
2022/09/09 00:18:29;;;;;;;18.23;16.67;;;15.70;99.90;;;;;;4956813;29;20458;-79
2022/09/09 00:21:06;;;;;;;17.77;16.13;;;15.60;99.90;;;;;;4957457;28;20968;-79
2022/09/09 00:23:37;;;;;;;17.90;16.30;;;15.60;99.90;;;;;;4956612;29;20454;-79
2022/09/09 00:26:12;;;;;;;17.60;16.10;;;15.60;99.90;;;;;;4956699;29;20421;-78
2022/09/09 00:28:46;;;;;;;21.60;19.77;;;15.60;99.90;;;;;;4958634;29;20425;-80
2022/09/09 00:31:19;;;;;;;19.57;17.80;;;15.50;99.90;;;;;;4957756;28;20477;-79
2022/09/09 00:33:49;;;;;;;19.50;17.90;;;15.60;99.90;;;;;;4957821;28;20443;-79
2022/09/09 00:36:22;;;;;;;18.73;17.13;;;15.50;99.90;;;;;;4957537;29;20522;-79
2022/09/09 00:38:53;;;;;;;18.80;17.27;;;15.50;99.90;;;;;;4957342;29;20429;-79
2022/09/09 00:41:27;;;;;;;18.87;17.17;;;15.50;99.90;;;;;;4958534;28;20477;-79
2022/09/09 00:44:03;;;;;;;20.20;18.40;;;15.50;99.90;;;;;;4959761;29;20458;-79
2022/09/09 00:46:49;;;;;;;19.40;17.60;;;15.40;99.90;;;;;;4959310;28;20890;-79
2022/09/09 00:49:27;;;;;;;20.20;18.60;;;15.40;99.90;;;;;;4959368;28;20463;-79
2022/09/09 00:52:06;;;;;;;18.93;17.27;;;15.40;99.90;;;;;;4960075;28;20462;-79
2022/09/09 00:54:45;;;;;;;20.37;18.67;;;15.40;99.90;;;;;;4958320;29;20796;-79
2022/09/09 00:57:24;;;;;;;21.40;19.37;;;15.30;99.90;;;;;;4959027;28;20427;-79
2022/09/09 00:59:58;;;;;;;20.60;18.70;;;15.30;99.90;;;;;;4963728;28;20459;-79
2022/09/09 01:02:29;;;;;;;22.83;20.83;;;15.30;99.90;;;;;;4961762;29;20421;-79
2022/09/09 01:05:06;;;;;;;21.37;19.57;;;15.30;99.90;;;;;;4961275;28;20438;-79
2022/09/09 01:07:34;;;;;;;22.80;20.60;;;15.30;99.90;;;;;;4961027;29;20549;-79
2022/09/09 01:10:08;;;;;;;22.57;20.70;;;15.30;99.90;;;;;;4961097;28;20528;-79
2022/09/09 01:12:43;;;;;;;21.00;19.20;;;15.30;99.90;;;;;;4960774;28;20457;-79
2022/09/09 01:15:24;;;;;;;21.73;19.97;;;15.30;99.90;;;;;;4960564;29;20450;-79
2022/09/09 01:18:01;;;;;;;20.53;18.83;;;15.20;99.90;;;;;;4960845;28;20501;-79
2022/09/09 01:20:39;;;;;;;23.40;21.40;;;15.20;99.90;;;;;;4961008;28;20535;-79
2022/09/09 01:23:27;;;;;;;23.93;21.63;;;15.20;99.90;;;;;;4960494;29;20447;-79
2022/09/09 01:26:23;;;;;;;23.10;21.10;;;15.20;99.90;;;;;;4961718;29;20951;-79
2022/09/09 01:28:54;;;;;;;21.10;19.20;;;15.20;99.90;;;;;;4960532;29;20449;-79
2022/09/09 01:31:37;;;;;;;22.67;20.77;;;15.10;99.90;;;;;;4959978;28;20466;-79
2022/09/09 01:34:11;;;;;;;22.20;20.20;;;15.10;99.90;;;;;;4960226;29;20454;-79
2022/09/09 01:36:44;;;;;;;21.67;19.67;;;15.10;99.90;;;;;;4960355;29;20467;-79
2022/09/09 01:39:13;;;;;;;23.03;20.93;;;15.10;99.90;;;;;;4959960;29;20490;-79
2022/09/09 01:41:44;;;;;;;23.37;21.20;;;15.10;99.90;;;;;;4959835;28;20500;-79
2022/09/09 01:44:14;;;;;;;23.20;21.13;;;15.10;99.90;;;;;;4959986;29;20431;-79
2022/09/09 01:46:45;;;;;;;21.67;19.77;;;15.10;99.90;;;;;;4960040;28;20413;-79
2022/09/09 01:49:19;;;;;;;21.67;19.47;;;15.10;99.90;;;;;;4959965;29;20531;-79
2022/09/09 01:51:50;;;;;;;21.07;18.87;;;15.10;99.90;;;;;;4959627;28;20471;-79
2022/09/09 01:54:23;;;;;;;21.07;19.27;;;15.10;99.90;;;;;;4959606;29;20965;-79
2022/09/09 01:57:12;;;;;;;20.93;19.13;;;15.00;99.90;;;;;;4959748;29;20497;-79
2022/09/09 01:59:54;;;;;;;19.53;17.70;;;15.10;99.90;;;;;;4959800;28;20457;-79
2022/09/09 02:02:27;;;;;;;20.40;18.60;;;15.00;99.90;;;;;;4960745;29;20552;-79
2022/09/09 02:05:16;;;;;;;17.67;16.10;;;15.00;99.90;;;;;;4960813;29;20454;-79
2022/09/09 02:07:49;;;;;;;20.67;18.77;;;15.00;99.90;;;;;;4960795;29;20827;-79
2022/09/09 02:10:34;;;;;;;20.40;18.70;;;15.00;99.90;;;;;;4959583;28;20520;-79
2022/09/09 02:13:20;;;;;;;20.80;18.90;;;15.00;99.90;;;;;;4960511;28;20465;-79
2022/09/09 02:15:53;;;;;;;20.37;18.57;;;14.90;99.90;;;;;;4960007;29;20533;-79
2022/09/09 02:18:27;;;;;;;21.77;19.97;;;14.90;99.90;;;;;;4960577;29;20435;-79
2022/09/09 02:20:57;;;;;;;19.50;17.83;;;14.90;99.90;;;;;;4959868;28;20478;-79
2022/09/09 02:23:27;;;;;;;21.20;19.20;;;14.90;99.90;;;;;;4960389;28;20454;-79
2022/09/09 02:25:58;;;;;;;21.20;19.10;;;14.90;99.90;;;;;;4960367;29;20461;-79
2022/09/09 02:28:32;;;;;;;18.10;16.70;;;14.90;99.90;;;;;;4959964;29;20472;-79
2022/09/09 02:31:01;;;;;;;20.47;18.70;;;14.90;99.90;;;;;;4960383;28;20474;-79
2022/09/09 02:33:40;;;;;;;18.27;16.77;;;14.80;99.90;;;;;;4959771;29;20442;-79
2022/09/09 02:36:10;;;;;;;20.57;18.53;;;14.80;99.90;;;;;;4958825;29;20541;-79
2022/09/09 02:38:46;;;;;;;18.33;16.63;;;14.80;99.90;;;;;;4959138;28;20443;-79
2022/09/09 02:41:17;;;;;;;19.27;17.57;;;14.80;99.90;;;;;;4958961;28;20480;-79
2022/09/09 02:43:46;;;;;;;19.07;17.37;;;14.80;99.90;;;;;;4959141;29;20458;-79
2022/09/09 02:46:29;;;;;;;18.70;16.90;;;14.70;99.90;;;;;;4960520;29;20969;-79
2022/09/09 02:49:05;;;;;;;17.77;16.07;;;14.70;99.90;;;;;;4961161;29;20501;-79
2022/09/09 02:51:46;;;;;;;18.40;16.80;;;14.70;99.90;;;;;;4960139;28;20477;-79
2022/09/09 02:54:23;;;;;;;17.37;15.77;;;14.70;99.90;;;;;;4960551;29;20541;-79
2022/09/09 02:56:56;;;;;;;15.63;14.33;;;14.70;99.90;;;;;;4960408;28;20458;-79
2022/09/09 02:59:34;;;;;;;16.50;14.80;;;14.70;99.90;;;;;;4960624;29;20455;-79
2022/09/09 03:02:02;;;;;;;17.40;15.87;;;14.60;99.90;;;;;;4960379;28;20443;-79
2022/09/09 03:04:32;;;;;;;17.10;15.50;;;14.60;99.90;;;;;;4959838;29;20461;-79
2022/09/09 03:07:00;;;;;;;18.13;16.63;;;14.60;99.90;;;;;;4959970;29;20451;-79
2022/09/09 03:09:28;;;;;;;18.80;17.00;;;14.60;99.90;;;;;;4960453;29;20470;-79
2022/09/09 03:11:57;;;;;;;20.80;18.90;;;14.60;99.90;;;;;;4960248;28;20493;-79
2022/09/09 03:14:27;;;;;;;20.33;17.17;;;14.60;99.90;;;;;;4959062;29;20464;-79
2022/09/09 03:17:00;;;;;;;19.07;15.90;;;14.50;99.90;;;;;;4959668;29;20886;-79
2022/09/09 03:19:31;;;;;;;22.20;20.30;;;14.50;99.90;;;;;;4960256;29;20435;-79
2022/09/09 03:22:00;;;;;;;18.47;16.97;;;14.50;99.90;;;;;;4958928;28;20508;-79
2022/09/09 03:24:30;;;;;;;19.23;17.53;;;14.50;99.90;;;;;;4959474;29;20432;-79
2022/09/09 03:26:58;;;;;;;21.37;19.67;;;14.50;99.90;;;;;;4958875;29;21021;-79
2022/09/09 03:29:27;;;;;;;17.50;16.00;;;14.50;99.90;;;;;;4959028;29;20509;-80
2022/09/09 03:32:00;;;;;;;17.97;16.27;;;14.50;99.90;;;;;;4959085;28;20470;-79
2022/09/09 03:34:28;;;;;;;16.20;14.80;;;14.50;99.90;;;;;;4959407;29;20451;-79
2022/09/09 03:36:59;;;;;;;15.23;13.83;;;14.50;99.90;;;;;;4959565;29;20434;-79
2022/09/09 03:39:28;;;;;;;15.70;14.40;;;14.50;99.90;;;;;;4959243;29;20479;-79
2022/09/09 03:41:57;;;;;;;16.77;15.27;;;14.50;99.90;;;;;;4960257;28;20486;-79
2022/09/09 03:44:26;;;;;;;16.43;15.00;;;14.50;99.90;;;;;;4960085;28;20557;-79
2022/09/09 03:46:55;;;;;;;15.80;14.50;;;14.50;99.90;;;;;;4962926;28;20443;-79
2022/09/09 03:49:25;;;;;;;17.00;15.40;;;14.60;99.90;;;;;;4962137;29;20482;-79
2022/09/09 03:51:56;;;;;;;17.33;15.80;;;14.60;99.90;;;;;;4961672;28;20513;-79
2022/09/09 03:54:24;;;;;;;16.53;15.07;;;14.60;99.90;;;;;;4961370;29;20465;-79
2022/09/09 03:56:53;;;;;;;16.97;15.47;;;14.60;99.90;;;;;;4961351;29;20450;-79
2022/09/09 03:59:23;;;;;;;16.73;15.17;;;14.60;99.90;;;;;;4960724;28;20501;-79
2022/09/09 04:01:51;;;;;;;15.73;14.43;;;14.60;99.90;;;;;;4959703;28;20981;-79
2022/09/09 04:04:20;;;;;;;16.80;15.13;;;14.60;99.90;;;;;;4959970;29;20459;-79
2022/09/09 04:06:50;;;;;;;15.27;14.00;;;14.60;99.90;;;;;;4959857;29;20471;-79
2022/09/09 04:09:18;;;;;;;14.77;13.47;;;14.60;99.90;;;;;;4959950;29;20465;-79
2022/09/09 04:11:49;;;;;;;16.50;15.00;;;14.60;99.90;;;;;;4959325;28;20560;-79
2022/09/09 04:14:17;;;;;;;14.30;13.10;;;14.60;99.90;;;;;;4958632;29;20462;-79
2022/09/09 04:16:45;;;;;;;14.30;13.10;;;14.60;99.90;;;;;;4959185;29;20446;-79
2022/09/09 04:19:14;;;;;;;16.57;15.07;;;14.60;99.90;;;;;;4958404;29;20446;-79
2022/09/09 04:21:44;;;;;;;15.87;14.50;;;14.60;99.90;;;;;;4958944;28;20474;-79
2022/09/09 04:24:16;;;;;;;14.77;13.47;;;14.60;99.90;;;;;;4958609;28;20451;-79
2022/09/09 04:26:45;;;;;;;14.43;13.27;;;14.60;99.90;;;;;;4958727;29;20446;-79
2022/09/09 04:29:13;;;;;;;14.97;13.77;;;14.60;99.90;;;;;;4957684;29;20475;-79
2022/09/09 04:31:42;;;;;;;15.27;13.97;;;14.70;99.90;;;;;;4958575;28;20880;-79
2022/09/09 04:34:11;;;;;;;13.87;12.70;;;14.60;99.90;;;;;;4961696;29;20873;-79
2022/09/09 04:36:40;;;;;;;14.30;13.00;;;14.60;99.90;;;;;;4962169;29;20482;-79
2022/09/09 04:39:09;;;;;;;15.23;13.83;;;14.70;99.90;;;;;;4961785;29;20421;-79
2022/09/09 04:41:39;;;;;;;15.07;13.67;;;14.70;99.90;;;;;;4962405;28;21065;-79
2022/09/09 04:44:07;;;;;;;15.03;13.43;;;14.70;99.90;;;;;;4963054;28;20946;-79
2022/09/09 04:46:35;;;;;;;14.87;13.57;;;14.70;99.90;;;;;;4961195;29;20453;-79
2022/09/09 04:49:05;;;;;;;14.77;13.20;;;14.70;99.90;;;;;;4961821;29;20561;-79
2022/09/09 04:51:34;;;;;;;15.10;13.70;;;14.70;99.90;;;;;;4961924;28;20482;-79
2022/09/09 04:54:02;;;;;;;14.97;13.57;;;14.70;99.90;;;;;;4962407;29;20462;-79
2022/09/09 04:56:31;;;;;;;12.30;11.20;;;14.70;99.90;;;;;;4961867;28;20507;-79
2022/09/09 04:59:03;;;;;;;14.30;12.93;;;14.60;99.90;;;;;;4961706;29;20454;-79
2022/09/09 05:01:41;;;;;;;13.70;12.40;;;14.70;99.90;;;;;;4963290;28;20462;-79
2022/09/09 05:04:10;;;;;;;13.63;12.33;;;14.70;99.90;;;;;;4961932;29;20457;-79
2022/09/09 05:06:38;;;;;;;13.57;12.40;;;14.60;99.90;;;;;;4962024;28;20549;-79
2022/09/09 05:09:06;;;;;;;12.47;11.47;;;14.60;99.90;;;;;;4963629;28;20449;-80
2022/09/09 05:11:36;;;;;;;13.73;12.37;;;14.60;99.90;;;;;;4962902;28;20991;-79
2022/09/09 05:14:18;;;;;;;16.23;13.30;;;14.60;99.90;;;;;;4962900;29;20958;-80
2022/09/09 05:16:47;;;;;;;12.43;11.30;;;14.60;99.90;;;;;;4962616;29;20465;-80
2022/09/09 05:19:18;;;;;;;13.40;12.30;;;14.60;99.90;;;;;;4962690;29;20478;-80
2022/09/09 05:21:50;;;;;;;13.23;11.93;;;14.60;99.90;;;;;;4961601;28;20851;-79
2022/09/09 05:24:24;;;;;;;12.67;11.37;;;14.60;99.90;;;;;;4961856;28;20436;-80
2022/09/09 05:26:57;;;;;;;12.53;11.23;;;14.60;99.90;;;;;;4962130;29;20920;-79
2022/09/09 05:29:27;;;;;;;12.60;11.43;;;14.60;99.90;;;;;;4962688;28;21016;-80
2022/09/09 05:31:57;;;;;;;12.77;11.57;;;14.60;99.90;;;;;;4964766;28;20470;-80
2022/09/09 05:34:25;;;;;;;12.87;11.47;;;14.60;99.90;;;;;;4965010;29;20970;-80
2022/09/09 05:36:54;;;;;;;12.10;11.00;;;14.60;99.90;;;;;;4965268;29;20451;-79
2022/09/09 05:39:24;;;;;;;11.87;10.77;;;14.60;99.90;;;;;;4963875;29;20461;-80
2022/09/09 05:41:52;;;;;;;11.63;10.63;;;14.70;99.90;;;;;;4962940;28;20539;-80
2022/09/09 05:44:23;;;;;;;10.93;9.90;;;14.60;99.90;;;;;;4963736;28;20961;-80
2022/09/09 05:46:53;;;;;;;12.60;11.37;;;14.70;99.90;;;;;;4963599;29;20435;-80
2022/09/09 05:49:22;;;;;;;12.30;11.20;;;14.70;99.90;;;;;;4963851;29;20475;-80
2022/09/09 05:51:51;;;;;;;15.03;12.33;;;14.70;99.90;;;;;;4963435;28;20481;-80
2022/09/09 05:54:21;;;;;;;14.53;13.10;;;14.70;99.90;;;;;;4963849;28;20465;-80
2022/09/09 05:56:53;;;;;;;16.13;14.43;;;14.70;99.90;;;;;;4962952;28;20457;-80
2022/09/09 05:59:23;;;;;;;15.10;13.70;;;14.80;99.90;;;;;;4963438;28;20521;-80
2022/09/09 06:01:54;;;;;;;15.30;13.70;;;14.80;99.90;;;;;;4964181;28;20438;-80
2022/09/09 06:04:31;;;;;;;12.60;11.50;;;14.80;99.90;;;;;;4963250;29;20481;-80
2022/09/09 06:07:01;;;;;;;12.80;11.50;;;14.90;99.90;;;;;;4963082;29;20458;-80
2022/09/09 06:09:30;;;;;;;12.90;11.70;;;14.90;99.90;;;;;;4962172;28;20846;-80
2022/09/09 06:11:58;;;;;;;15.53;12.50;;;15.00;99.90;;;;;;4961649;28;20496;-80
2022/09/09 06:14:27;;;;;;;13.53;12.17;;;15.20;99.90;;;;;;4962178;29;20470;-80
2022/09/09 06:17:00;;;;;;;15.93;12.00;;;15.30;99.90;;;;;;4961744;29;20474;-80
2022/09/09 06:19:30;;;;;;;12.93;11.37;;;15.50;99.90;;;;;;4961934;29;20450;-80
2022/09/09 06:22:00;;;;;;;12.33;10.97;;;15.50;99.90;;;;;;4961205;28;20498;-79
2022/09/09 06:24:32;;;;;;;13.60;11.40;;;15.60;99.90;;;;;;4961180;29;20433;-80
2022/09/09 06:27:02;;;;;;;14.47;13.13;;;15.60;99.90;;;;;;4961404;29;20451;-79
2022/09/09 06:29:34;;;;;;;11.50;10.37;;;15.60;99.90;;;;;;4961211;29;20445;-79
2022/09/09 06:32:04;;;;;;;11.53;10.43;;;15.60;99.90;;;;;;4961631;28;20980;-79
2022/09/09 06:34:32;;;;;;;11.67;10.47;;;15.80;99.90;;;;;;4960943;29;20451;-79
2022/09/09 06:37:01;;;;;;;12.07;11.07;;;16.00;99.90;;;;;;4960834;29;20513;-79
2022/09/09 06:39:38;;;;;;;10.30;9.40;;;16.10;99.90;;;;;;4960930;28;20449;-79
2022/09/09 06:42:08;;;;;;;11.03;9.90;;;16.20;99.90;;;;;;4960785;28;20823;-79
2022/09/09 06:44:55;;;;;;;11.90;10.70;;;16.30;99.90;;;;;;4960513;28;20526;-79
2022/09/09 06:47:45;;;;;;;11.53;8.97;;;16.50;99.90;;;;;;4962974;29;20480;-79
2022/09/09 06:50:14;;;;;;;10.00;9.10;;;16.60;99.90;;;;;;4960960;28;20558;-80
2022/09/09 06:52:43;;;;;;;11.73;10.53;;;16.80;99.90;;;;;;4960882;28;20447;-79
2022/09/09 06:55:12;;;;;;;9.40;8.40;;;16.90;99.90;;;;;;4961524;28;20497;-80
2022/09/09 06:57:41;;;;;;;8.90;8.10;;;17.10;99.90;;;;;;4961046;28;20420;-80
2022/09/09 07:00:15;;;;;;;9.50;8.67;;;17.30;99.90;;;;;;4960525;28;20481;-80
2022/09/09 07:02:44;;;;;;;8.97;7.77;;;17.30;99.90;;;;;;4961068;29;20425;-80
2022/09/09 07:05:16;;;;;;;9.40;8.60;;;17.30;99.90;;;;;;4960171;28;20455;-79
2022/09/09 07:07:46;;;;;;;10.87;9.47;;;17.30;99.90;;;;;;4960285;28;20413;-79
2022/09/09 07:10:17;;;;;;;8.90;7.70;;;17.30;99.90;;;;;;4959568;28;20556;-80
2022/09/09 07:12:51;;;;;;;9.70;8.80;;;17.20;99.90;;;;;;4959675;28;20425;-80
2022/09/09 07:15:22;;;;;;;9.97;9.00;;;17.20;99.90;;;;;;4960551;29;20512;-79
2022/09/09 07:17:50;;;;;;;9.60;8.60;;;17.10;99.90;;;;;;4961662;28;20774;-79
2022/09/09 07:20:20;;;;;;;9.53;8.07;;;17.10;99.90;;;;;;4960778;28;20489;-79
2022/09/09 07:22:48;;;;;;;10.73;9.67;;;17.20;99.90;;;;;;4960330;28;20455;-81
2022/09/09 07:25:17;;;;;;;13.93;8.60;;;17.20;99.90;;;;;;4959742;29;20447;-80
2022/09/09 07:27:47;;;;;;;11.17;8.43;;;17.10;99.90;;;;;;4960118;28;20454;-79
2022/09/09 07:30:15;;;;;;;8.80;7.57;;;17.10;99.90;;;;;;4959673;28;20485;-80
2022/09/09 07:32:53;;;;;;;9.57;8.57;;;17.10;99.90;;;;;;4960649;28;20439;-80
2022/09/09 07:35:22;;;;;;;9.10;8.30;;;17.10;99.90;;;;;;4959969;28;20505;-79
2022/09/09 07:37:50;;;;;;;12.33;9.10;;;17.20;99.90;;;;;;4961935;28;20446;-79
2022/09/09 07:40:21;;;;;;;8.63;7.67;;;17.20;99.90;;;;;;4960025;28;20562;-80
2022/09/09 07:42:51;;;;;;;9.00;8.10;;;17.30;99.90;;;;;;4960640;29;20819;-80
2022/09/09 07:45:19;;;;;;;8.80;7.97;;;17.40;99.90;;;;;;4960191;29;20490;-80
2022/09/09 07:47:47;;;;;;;9.70;7.70;;;17.50;99.90;;;;;;4959698;28;20469;-79
2022/09/09 07:50:16;;;;;;;8.87;7.23;;;17.60;99.90;;;;;;4960125;28;20562;-79
2022/09/09 07:52:46;;;;;;;11.20;10.00;;;17.70;99.90;;;;;;4959970;28;20424;-79
2022/09/09 07:55:15;;;;;;;8.40;7.70;;;17.90;99.90;;;;;;4959686;29;20454;-80
2022/09/09 07:57:43;;;;;;;8.10;6.73;;;18.00;99.90;;;;;;4959129;28;20467;-79
2022/09/09 08:00:14;;;;;;;7.00;6.17;;;18.20;99.90;;;;;;4958774;28;20895;-79
2022/09/09 08:02:48;;;;;;;6.80;6.10;;;18.30;99.90;;;;;;4959401;28;20446;-80
2022/09/09 08:05:17;;;;;;;9.90;6.27;;;18.30;99.90;;;;;;4959615;28;20550;-80
2022/09/09 08:07:48;;;;;;;6.40;5.80;;;18.30;99.90;;;;;;4960411;28;20981;-80
2022/09/09 08:10:16;;;;;;;6.93;5.60;;;18.40;99.90;;;;;;4963603;28;20842;-80
2022/09/09 08:12:46;;;;;;;7.67;5.47;;;18.40;99.90;;;;;;4963629;28;20529;-79
2022/09/09 08:15:34;;;;;;;6.83;4.97;;;18.40;99.90;;;;;;4965087;28;20794;-79
2022/09/09 08:18:05;;;;;;;6.60;5.80;;;18.30;99.90;;;;;;4962754;29;20455;-81
2022/09/09 08:20:36;;;;;;;7.53;5.30;;;18.30;99.90;;;;;;4962507;28;20474;-80
2022/09/09 08:23:05;;;;;;;8.53;6.07;;;18.30;99.90;;;;;;4963178;29;21016;-80
2022/09/09 08:25:35;;;;;;;6.63;5.07;;;18.30;99.90;;;;;;4963089;28;20447;-80
2022/09/09 08:28:04;;;;;;;5.80;5.13;;;18.20;99.90;;;;;;4962791;28;20501;-80
2022/09/09 08:30:32;;;;;;;8.90;5.90;;;18.20;99.90;;;;;;4962321;28;20478;-80
2022/09/09 08:33:01;;;;;;;9.10;7.80;;;18.30;99.90;;;;;;4962700;29;20454;-80
2022/09/09 08:35:32;;;;;;;8.20;7.40;;;18.40;99.90;;;;;;4962086;28;20459;-80
2022/09/09 08:38:01;;;;;;;8.87;8.07;;;18.50;99.90;;;;;;4962361;28;20521;-80
2022/09/09 08:40:43;;;;;;;8.37;7.63;;;18.60;99.90;;;;;;4961933;28;20494;-80
2022/09/09 08:43:12;;;;;;;8.20;7.50;;;18.70;99.90;;;;;;4962394;29;20470;-80
2022/09/09 08:45:55;;;;;;;7.97;6.60;;;18.70;99.90;;;;;;4963098;28;20583;-80
2022/09/09 08:48:44;;;;;;;7.63;6.80;;;18.80;99.90;;;;;;4962787;28;20462;-80
2022/09/09 08:51:14;;;;;;;7.47;6.90;;;18.90;99.90;;;;;;4962652;28;20498;-80
2022/09/09 08:53:49;;;;;;;8.30;7.50;;;18.90;99.90;;;;;;4962786;28;20813;-80
2022/09/09 08:56:22;;;;;;;7.80;7.10;;;18.90;99.90;;;;;;4962193;28;20973;-80
2022/09/09 08:58:56;;;;;;;10.73;8.03;;;19.00;99.90;;;;;;4961618;28;20494;-80
2022/09/09 09:01:53;;;;;;;8.63;7.93;;;19.00;99.90;;;;;;4962594;28;20474;-80
2022/09/09 09:04:53;;;;;;;6.30;5.80;;;19.00;99.90;;;;;;4962766;29;20486;-81
2022/09/09 09:07:34;;;;;;;7.83;6.07;;;19.10;99.90;;;;;;4962417;28;20446;-82
2022/09/09 09:10:13;;;;;;;5.40;4.73;;;19.20;99.90;;;;;;4963273;28;20476;-80
2022/09/09 09:13:04;;;;;;;6.57;4.63;;;19.40;99.90;;;;;;4963967;29;20473;-81
2022/09/09 09:15:38;;;;;;;5.27;4.10;;;19.50;99.90;;;;;;4963462;28;20893;-81
2022/09/09 09:18:13;;;;;;;6.23;4.23;;;19.70;99.90;;;;;;4963424;28;20438;-80
2022/09/09 09:20:56;;;;;;;5.23;3.53;;;19.80;99.90;;;;;;4961970;28;20469;-80
2022/09/09 09:23:30;;;;;;;4.83;3.83;;;19.90;99.90;;;;;;4962432;28;20478;-80
2022/09/09 09:26:01;;;;;;;5.33;4.10;;;20.10;99.90;;;;;;4963787;28;20446;-80
2022/09/09 09:28:33;;;;;;;4.83;4.43;;;20.20;99.90;;;;;;4962254;28;20447;-81
2022/09/09 09:31:11;;;;;;;4.43;3.90;;;20.30;99.90;;;;;;4961627;28;20529;-80
2022/09/09 09:33:49;;;;;;;4.77;4.10;;;20.30;99.90;;;;;;4961714;28;20457;-80
2022/09/09 09:36:20;;;;;;;7.43;4.83;;;20.40;99.90;;;;;;4963080;29;20530;-81
2022/09/09 09:38:57;;;;;;;4.67;3.97;;;20.50;99.90;;;;;;4964023;28;20453;-81
2022/09/09 09:41:47;;;;;;;7.20;4.30;;;20.50;99.90;;;;;;4962297;28;20462;-81
2022/09/09 09:44:27;;;;;;;4.13;3.53;;;20.50;99.90;;;;;;4963353;28;20969;-80
2022/09/09 09:47:08;;;;;;;5.33;3.87;;;20.50;99.90;;;;;;4962498;28;20443;-80
2022/09/09 09:49:37;;;;;;;4.60;3.40;;;20.60;99.90;;;;;;4962107;28;20454;-81
2022/09/09 09:52:07;;;;;;;6.40;3.87;;;20.50;99.90;;;;;;4964289;28;20471;-81
2022/09/09 09:54:40;;;;;;;5.87;3.70;;;20.60;99.90;;;;;;4962900;29;20820;-81
2022/09/09 09:57:10;;;;;;;6.87;4.20;;;20.60;99.90;;;;;;4963401;28;20458;-81
2022/09/09 09:59:42;;;;;;;4.47;4.07;;;20.70;99.90;;;;;;4962018;28;20449;-81
2022/09/09 10:02:27;;;;;;;4.37;3.73;;;20.80;99.90;;;;;;4962807;28;20439;-80
2022/09/09 10:05:06;;;;;;;6.30;4.07;;;20.90;99.90;;;;;;4961483;29;20791;-81
2022/09/09 10:07:37;;;;;;;5.43;4.30;;;20.90;99.90;;;;;;4960771;28;20946;-80
2022/09/09 10:10:06;;;;;;;5.87;4.70;;;20.90;99.90;;;;;;4961431;28;20837;-80
2022/09/09 10:12:46;;;;;;;4.63;4.23;;;21.00;99.90;;;;;;4970202;28;20494;-81
2022/09/09 10:15:32;;;;;;;5.17;4.43;;;21.10;99.90;;;;;;4970556;28;20517;-81
2022/09/09 10:18:14;;;;;;;7.47;4.87;;;21.10;99.90;;;;;;4967047;28;20973;-81
2022/09/09 10:20:50;;;;;;;6.07;5.47;;;21.20;99.90;;;;;;4968009;28;21096;-81
2022/09/09 10:23:33;;;;;;;5.50;5.00;;;21.20;99.90;;;;;;4968733;28;20422;-81
2022/09/09 10:26:17;;;;;;;5.70;5.20;;;21.20;99.90;;;;;;4967817;28;20427;-81
2022/09/09 10:29:02;;;;;;;5.67;5.10;;;21.10;99.90;;;;;;4969139;28;20470;-82
2022/09/09 10:31:42;;;;;;;8.63;5.33;;;21.10;99.90;;;;;;4967827;28;20538;-81
2022/09/09 10:34:21;;;;;;;7.83;5.77;;;21.10;99.90;;;;;;4969667;28;20533;-81
2022/09/09 10:36:51;;;;;;;8.20;5.13;;;21.20;99.90;;;;;;4970616;28;20442;-81
2022/09/09 10:39:37;;;;;;;6.40;5.50;;;21.20;99.90;;;;;;4973205;28;20479;-80
2022/09/09 10:42:13;;;;;;;9.47;4.83;;;21.10;99.90;;;;;;4971521;29;20478;-81
2022/09/09 10:45:00;;;;;;;8.37;4.67;;;21.10;99.90;;;;;;4972470;28;20415;-81
2022/09/09 10:47:58;;;;;;;4.80;4.30;;;21.10;99.90;;;;;;4968024;28;20427;-81
2022/09/09 10:50:43;;;;;;;7.83;4.30;;;21.10;99.90;;;;;;4959896;28;20480;-81
2022/09/09 10:53:45;;;;;;;5.37;4.30;;;21.10;99.90;;;;;;4963589;28;20493;-80
2022/09/09 10:56:19;;;;;;;8.80;5.27;;;21.10;99.90;;;;;;4962023;28;20449;-81
2022/09/09 10:58:52;;;;;;;4.63;4.07;;;21.10;99.90;;;;;;4962815;28;20462;-81
2022/09/09 11:01:25;;;;;;;5.10;4.00;;;21.10;99.90;;;;;;4962820;28;20474;-81
2022/09/09 11:03:59;;;;;;;4.57;3.57;;;21.10;99.90;;;;;;4962743;28;20454;-80
2022/09/09 11:06:33;;;;;;;6.80;4.07;;;21.10;99.90;;;;;;4961380;28;20454;-80
2022/09/09 11:09:03;;;;;;;6.80;4.10;;;21.20;99.90;;;;;;4960463;28;20446;-81
2022/09/09 11:11:37;;;;;;;4.57;3.93;;;21.30;99.90;;;;;;4959974;28;20474;-80
2022/09/09 11:14:13;;;;;;;4.13;3.70;;;21.30;99.90;;;;;;4961111;28;20439;-80
2022/09/09 11:16:47;;;;;;;5.00;4.50;;;21.30;99.90;;;;;;4961202;29;20976;-80
2022/09/09 11:19:25;;;;;;;7.10;4.50;;;21.40;99.90;;;;;;4962059;28;20475;-81
2022/09/09 11:21:54;;;;;;;5.93;5.23;;;21.40;99.90;;;;;;4960199;28;20572;-80
2022/09/09 11:24:29;;;;;;;5.80;5.03;;;21.30;99.90;;;;;;4960334;28;20458;-80
2022/09/09 11:27:02;;;;;;;5.60;4.37;;;21.30;99.90;;;;;;4961479;28;20502;-80
2022/09/09 11:30:02;;;;;;;8.13;5.27;;;21.30;99.90;;;;;;4960908;29;20454;-80
2022/09/09 11:33:05;;;;;;;6.70;5.00;;;21.30;99.90;;;;;;4962172;28;20482;-81
2022/09/09 11:35:46;;;;;;;5.20;4.80;;;21.20;99.90;;;;;;4947402;29;20445;-81
2022/09/09 11:38:22;;;;;;;6.27;5.67;;;21.20;99.90;;;;;;4959544;28;20958;-80
2022/09/09 11:40:59;;;;;;;10.03;8.97;;;21.10;99.90;;;;;;4959902;28;20474;-81
2022/09/09 11:43:31;;;;;;;9.03;5.90;;;21.10;99.90;;;;;;4961368;28;20426;-80
2022/09/09 11:46:03;;;;;;;5.83;5.30;;;21.10;99.90;;;;;;4959004;28;20450;-81
2022/09/09 11:48:35;;;;;;;7.03;6.07;;;21.10;99.90;;;;;;4959842;28;20529;-80
2022/09/09 11:51:08;;;;;;;9.00;7.13;;;21.10;99.90;;;;;;4961357;28;20463;-80
2022/09/09 11:53:51;;;;;;;7.73;7.03;;;21.00;99.90;;;;;;4959413;28;20466;-80
2022/09/09 11:56:31;;;;;;;9.07;6.40;;;21.00;99.90;;;;;;4960704;28;20437;-80
2022/09/09 11:59:03;;;;;;;8.00;6.87;;;21.00;99.90;;;;;;4959354;28;20443;-80
2022/09/09 12:01:36;;;;;;;7.60;6.27;;;20.90;99.90;;;;;;4958681;28;20476;-80
2022/09/09 12:04:37;;;;;;;7.30;6.20;;;20.90;99.90;;;;;;4960033;28;20447;-80
2022/09/09 12:07:27;;;;;;;5.63;5.00;;;20.80;99.90;;;;;;4959182;28;20435;-80
2022/09/09 12:09:59;;;;;;;14.50;11.80;;;20.70;99.90;;;;;;4960718;28;20795;-80
2022/09/09 12:12:30;;;;;;;4.67;4.03;;;20.60;99.90;;;;;;4960827;28;20462;-80
2022/09/09 12:15:21;;;;;;;5.33;3.07;;;20.50;99.90;;;;;;4961261;28;20426;-80
2022/09/09 12:17:51;;;;;;;2.90;2.40;;;20.50;99.90;;;;;;4958893;28;20438;-80
2022/09/09 12:20:21;;;;;;;4.87;3.20;;;20.40;99.90;;;;;;4960293;28;20468;-80
2022/09/09 12:23:10;;;;;;;3.80;2.23;;;20.30;99.90;;;;;;4958880;29;20508;-80
2022/09/09 12:25:57;;;;;;;3.50;2.30;;;20.20;99.90;;;;;;4958897;28;20866;-80
2022/09/09 12:28:40;;;;;;;3.37;2.30;;;20.20;99.90;;;;;;4959741;28;20799;-80
2022/09/09 12:31:17;;;;;;;2.90;2.40;;;20.10;99.90;;;;;;4959012;28;20988;-80
2022/09/09 12:33:47;;;;;;;3.80;2.27;;;20.10;99.90;;;;;;4959018;28;20462;-80
2022/09/09 12:36:19;;;;;;;6.10;2.20;;;20.10;99.90;;;;;;4960222;28;20458;-80
2022/09/09 12:38:50;;;;;;;4.27;2.70;;;20.10;99.90;;;;;;4960083;28;20527;-80
2022/09/09 12:41:23;;;;;;;5.03;2.87;;;20.10;99.90;;;;;;4958692;28;20478;-80
2022/09/09 12:43:52;;;;;;;4.80;2.73;;;20.10;99.90;;;;;;4958335;28;21017;-80
2022/09/09 12:46:33;;;;;;;3.80;2.50;;;20.10;99.90;;;;;;4959984;28;20454;-80
2022/09/09 12:49:01;;;;;;;6.70;3.60;;;20.10;99.90;;;;;;4970410;28;20489;-80
2022/09/09 12:51:33;;;;;;;4.00;2.90;;;20.10;99.90;;;;;;4966800;28;20565;-80
2022/09/09 12:54:03;;;;;;;4.60;3.53;;;20.10;99.90;;;;;;4963405;28;20473;-76
2022/09/09 12:56:33;;;;;;;4.80;2.57;;;20.10;99.90;;;;;;4959431;28;20863;-79
2022/09/09 12:59:01;;;;;;;4.63;2.40;;;20.10;99.90;;;;;;4962224;28;20443;-78
2022/09/09 13:01:32;;;;;;;4.73;2.33;;;20.10;99.90;;;;;;4962651;28;20470;-79
2022/09/09 13:04:01;;;;;;;3.70;2.83;;;20.10;99.90;;;;;;4961440;28;20430;-79
2022/09/09 13:06:32;;;;;;;4.10;2.07;;;20.20;99.90;;;;;;4960707;28;20438;-78
2022/09/09 13:09:02;;;;;;;4.00;1.90;;;20.20;99.90;;;;;;4958801;29;20450;-78